KBPT/BPT METAR and TAF weather

Enter ICAO airport designator
Station Type Date Time Source
KBPT METAR 2022/01/26 13:53 UTC NOAA

KBPT 261353Z 03013KT 10SM CLR 03/M03 A3032 RMK AO2 SLP267 T00281028


Station Type Date Time Source
KBPT Decoded METAR 2022/01/26 13:53 UTC NOAA

SOUTHEAST TEXAS RGNL AIRPORT, TX, United States (KBPT) 29-95N 094-08W 5M
Jan 26, 2022 - 08:53 AM EST / 2022.01.26 1353 UTC
Wind: from the NNE (030 degrees) at 15 MPH (13 KT):0
Visibility: 10 mile(s):0
Sky conditions: clear
Temperature: 37.0 F (2.8 C)
Dew Point: 27.0 F (-2.8 C)
Relative Humidity: 66%
Pressure (altimeter): 30.32 in. Hg (1026 hPa)
ob: KBPT 261353Z 03013KT 10SM CLR 03/M03 A3032 RMK AO2 SLP267 T00281028
cycle: 14

Station Type Date Time Source
KBPT TAF 2022/01/26 12:36 UTC NOAA

TAF KBPT 261134Z 2612/2712 02011G18KT P6SM SKC
FM270000 04007KT P6SM SKC

Example: see airport list